Time;durP1;ratioP1;P1;durP2;ratioP2;P2;SDS_P1;SDS_P2;PMS_P1;PMS_P2;Temp;Humidity;BMP_temperature;BMP_pressure;BME280_temperature;BME280_humidity;BME280_pressure;Samples;Min_cycle;Max_cycle;Signal;HPM_P1;HPM_P2
2022/12/17 13:08:17;;;;;;;44.27;22.37;;;0.40;99.90;;;;;;5093581;28;20185;-70
2022/12/17 13:10:43;;;;;;;35.07;20.93;;;0.40;99.90;;;;;;5088897;28;20176;-69
2022/12/17 13:13:19;;;;;;;45.43;23.67;;;0.40;99.90;;;;;;5088606;28;20189;-68
2022/12/17 13:15:55;;;;;;;38.90;22.23;;;0.40;99.90;;;;;;5090770;28;20183;-69
2022/12/17 13:18:46;;;;;;;55.50;25.03;;;0.40;99.90;;;;;;5089046;28;20168;-68
2022/12/17 13:21:15;;;;;;;45.07;24.97;;;0.30;99.90;;;;;;5090959;28;20201;-68
2022/12/17 13:23:41;;;;;;;35.47;18.53;;;0.40;99.90;;;;;;5093104;28;20188;-69
2022/12/17 13:26:21;;;;;;;56.20;22.67;;;0.40;99.90;;;;;;5089054;28;20173;-70
2022/12/17 13:28:59;;;;;;;43.83;21.13;;;0.40;99.90;;;;;;5087579;28;20267;-68
2022/12/17 13:31:52;;;;;;;42.90;20.57;;;0.60;99.90;;;;;;5088986;28;20263;-67
2022/12/17 13:34:25;;;;;;;33.43;19.73;;;0.40;99.90;;;;;;5084837;28;20276;-68
2022/12/17 13:37:04;;;;;;;52.63;25.10;;;0.30;99.90;;;;;;5091317;28;20283;-68
2022/12/17 13:39:44;;;;;;;34.77;22.87;;;0.30;99.90;;;;;;5091706;28;20282;-68
2022/12/17 13:42:26;;;;;;;34.37;19.47;;;0.40;99.90;;;;;;5090328;28;20271;-67
2022/12/17 13:44:52;;;;;;;37.67;21.20;;;0.50;99.90;;;;;;5093131;28;20651;-67
2022/12/17 13:47:24;;;;;;;42.03;24.90;;;0.50;99.90;;;;;;5080655;28;20184;-68
2022/12/17 13:49:52;;;;;;;42.27;23.30;;;0.40;99.90;;;;;;5091293;28;20197;-69
2022/12/17 13:52:20;;;;;;;44.00;23.63;;;0.50;99.90;;;;;;5071243;28;20185;-67
2022/12/17 13:54:46;;;;;;;50.93;25.53;;;0.50;99.90;;;;;;5089547;28;20183;-68
2022/12/17 13:57:23;;;;;;;44.50;24.20;;;0.40;99.90;;;;;;5074683;28;20173;-67
2022/12/17 13:59:54;;;;;;;50.13;25.43;;;0.40;99.90;;;;;;5093011;28;20279;-68
2022/12/17 14:02:27;;;;;;;45.13;22.50;;;0.50;99.90;;;;;;5090476;28;20178;-69
2022/12/17 14:04:58;;;;;;;45.83;23.00;;;0.60;99.90;;;;;;5090432;28;20187;-68
2022/12/17 14:07:25;;;;;;;43.97;24.60;;;0.70;99.90;;;;;;5092293;28;20177;-67
2022/12/17 14:09:52;;;;;;;43.63;21.93;;;0.60;99.90;;;;;;5089370;28;20217;-69
2022/12/17 14:12:21;;;;;;;47.40;23.77;;;0.50;99.90;;;;;;5090583;28;20188;-68
2022/12/17 14:14:58;;;;;;;37.37;21.63;;;0.20;99.90;;;;;;5084350;28;20229;-69
2022/12/17 14:17:26;;;;;;;45.03;22.03;;;0.20;99.90;;;;;;5091820;28;20184;-70
2022/12/17 14:20:03;;;;;;;40.33;24.53;;;0.30;99.90;;;;;;5086073;28;20365;-70
2022/12/17 14:22:34;;;;;;;41.80;20.57;;;0.20;99.90;;;;;;5090326;28;20283;-69
2022/12/17 14:25:00;;;;;;;43.97;22.80;;;0.10;99.90;;;;;;5092714;28;20212;-68
2022/12/17 14:27:32;;;;;;;38.30;19.67;;;0.10;99.90;;;;;;5073425;28;20641;-69
2022/12/17 14:29:58;;;;;;;44.00;22.63;;;0.10;99.90;;;;;;5084310;28;20191;-68
2022/12/17 14:32:35;;;;;;;38.50;21.27;;;0.00;99.90;;;;;;5092540;28;20655;-68
2022/12/17 14:35:01;;;;;;;33.60;21.60;;;0.00;99.90;;;;;;5086652;28;20208;-71
2022/12/17 14:37:28;;;;;;;34.10;21.80;;;-0.10;99.90;;;;;;5063869;28;20184;-68
2022/12/17 14:39:59;;;;;;;41.73;21.23;;;0.20;99.90;;;;;;5084440;28;20239;-68
2022/12/17 14:42:27;;;;;;;50.37;23.27;;;0.20;99.90;;;;;;5083477;28;20185;-66
2022/12/17 14:45:21;;;;;;;31.53;20.73;;;0.10;99.90;;;;;;5068909;28;20513;-67
2022/12/17 14:47:59;;;;;;;28.87;16.93;;;0.00;99.90;;;;;;5087028;28;20544;-69
2022/12/17 14:50:24;;;;;;;38.57;22.93;;;-0.10;99.90;;;;;;5084665;28;20199;-68
2022/12/17 14:52:53;;;;;;;45.60;21.73;;;-0.40;99.90;;;;;;5082892;28;20683;-70
2022/12/17 14:55:37;;;;;;;36.87;21.33;;;-0.50;99.90;;;;;;5087553;28;20183;-69
2022/12/17 14:58:28;;;;;;;35.57;20.27;;;-0.60;99.90;;;;;;5083557;28;20176;-68
2022/12/17 15:01:07;;;;;;;31.20;20.60;;;-0.60;99.90;;;;;;5086992;28;20208;-67
2022/12/17 15:03:44;;;;;;;40.60;18.87;;;-0.40;99.90;;;;;;5090452;28;20210;-66
2022/12/17 15:06:13;;;;;;;32.47;20.37;;;-0.40;99.90;;;;;;5088118;28;20643;-67
2022/12/17 15:08:47;;;;;;;38.63;19.80;;;-0.40;99.90;;;;;;5091081;28;20267;-67
2022/12/17 15:11:15;;;;;;;35.53;22.60;;;-0.60;99.90;;;;;;5088026;28;20188;-67
2022/12/17 15:13:41;;;;;;;37.47;23.83;;;-0.60;99.90;;;;;;5090533;28;20165;-66
2022/12/17 15:16:07;;;;;;;34.97;18.10;;;-0.50;99.90;;;;;;5090774;28;20177;-68
2022/12/17 15:18:32;;;;;;;43.13;21.83;;;-0.30;99.90;;;;;;5090514;28;20181;-66
2022/12/17 15:20:58;;;;;;;38.73;23.97;;;-0.60;99.90;;;;;;5090603;28;20691;-67
2022/12/17 15:23:24;;;;;;;30.10;19.00;;;-0.90;99.90;;;;;;5083915;28;20537;-67
2022/12/17 15:25:52;;;;;;;30.03;22.03;;;-1.00;99.90;;;;;;5092284;28;20177;-66
2022/12/17 15:28:19;;;;;;;34.03;16.57;;;-1.20;99.90;;;;;;5083875;28;20674;-68
2022/12/17 15:30:46;;;;;;;40.63;24.07;;;-1.30;99.90;;;;;;5085532;28;20185;-68
2022/12/17 15:33:12;;;;;;;31.73;20.50;;;-1.20;99.90;;;;;;5082562;28;20173;-66
2022/12/17 15:35:38;;;;;;;41.30;23.13;;;-1.00;99.90;;;;;;5095202;28;20186;-65
2022/12/17 15:38:05;;;;;;;41.07;23.27;;;-0.80;99.90;;;;;;5095697;28;20177;-66
2022/12/17 15:40:30;;;;;;;39.27;22.50;;;-0.70;99.90;;;;;;5087538;28;20204;-66
2022/12/17 15:43:12;;;;;;;41.47;22.93;;;-0.60;99.90;;;;;;5100686;28;20185;-66
2022/12/17 15:45:41;;;;;;;43.90;22.33;;;-0.50;99.90;;;;;;5080387;28;20188;-66
2022/12/17 15:48:08;;;;;;;27.23;18.20;;;-0.50;99.90;;;;;;5077533;28;20185;-66
2022/12/17 15:50:34;;;;;;;33.23;17.40;;;-0.70;99.90;;;;;;5093487;28;20207;-65
2022/12/17 15:53:00;;;;;;;40.77;20.60;;;-0.80;99.90;;;;;;5073521;28;20204;-66
2022/12/17 15:55:26;;;;;;;31.13;17.47;;;-1.00;99.90;;;;;;5060135;28;20196;-66
2022/12/17 15:57:52;;;;;;;36.37;21.70;;;-1.10;99.90;;;;;;5095036;28;20189;-66
2022/12/17 16:00:17;;;;;;;43.77;17.27;;;-1.00;99.90;;;;;;5093190;28;20212;-66
2022/12/17 16:02:43;;;;;;;34.07;19.87;;;-0.90;99.90;;;;;;5093348;28;20184;-67
2022/12/17 16:05:09;;;;;;;24.83;18.03;;;-1.00;99.90;;;;;;5092731;28;20196;-68
2022/12/17 16:07:36;;;;;;;35.40;17.23;;;-1.10;99.90;;;;;;5094285;28;20263;-67
2022/12/17 16:10:03;;;;;;;36.50;20.93;;;-0.90;99.90;;;;;;5093735;28;20650;-67
2022/12/17 16:12:29;;;;;;;30.43;19.77;;;-1.00;99.90;;;;;;5086962;28;20192;-68
2022/12/17 16:14:55;;;;;;;36.87;18.33;;;-1.10;99.90;;;;;;5082120;28;20193;-67
2022/12/17 16:17:20;;;;;;;43.60;18.77;;;-1.00;99.90;;;;;;5090558;28;20235;-67
2022/12/17 16:19:46;;;;;;;35.53;19.83;;;-1.00;99.90;;;;;;5085436;28;20666;-67
2022/12/17 16:22:12;;;;;;;30.13;17.60;;;-1.00;99.90;;;;;;5078505;28;20558;-68
2022/12/17 16:24:38;;;;;;;36.53;20.13;;;-1.00;99.90;;;;;;5080790;28;20188;-67
2022/12/17 16:27:03;;;;;;;39.77;19.50;;;-1.20;99.90;;;;;;5076978;28;20183;-67
2022/12/17 16:29:29;;;;;;;27.47;15.70;;;-1.30;99.90;;;;;;5076182;28;20191;-66
2022/12/17 16:31:54;;;;;;;30.73;17.03;;;-1.50;99.90;;;;;;5083482;28;20279;-66
2022/12/17 16:34:20;;;;;;;28.50;15.77;;;-1.60;99.90;;;;;;5093151;28;20194;-67
2022/12/17 16:36:46;;;;;;;35.63;21.10;;;-1.80;99.90;;;;;;5087180;28;20270;-66
2022/12/17 16:39:17;;;;;;;43.93;20.60;;;-1.70;99.90;;;;;;5089028;28;20211;-67
2022/12/17 16:41:43;;;;;;;39.63;17.77;;;-1.70;99.90;;;;;;5091037;28;20249;-67
2022/12/17 16:44:09;;;;;;;38.50;15.63;;;-1.70;99.90;;;;;;5094415;28;20237;-66
2022/12/17 16:46:37;;;;;;;22.33;13.87;;;-1.50;99.90;;;;;;5092815;28;20191;-68
2022/12/17 16:49:06;;;;;;;29.43;15.70;;;-1.50;99.90;;;;;;5088978;28;20185;-67
2022/12/17 16:51:32;;;;;;;34.87;18.57;;;-1.70;99.90;;;;;;5094667;28;20589;-66
2022/12/17 16:53:58;;;;;;;33.97;18.73;;;-1.70;99.90;;;;;;5091859;28;20188;-68
2022/12/17 16:56:26;;;;;;;17.80;12.70;;;-1.60;99.90;;;;;;5084217;28;20176;-68
2022/12/17 16:58:53;;;;;;;36.83;20.63;;;-1.50;99.90;;;;;;5076042;28;20197;-68
2022/12/17 17:01:20;;;;;;;31.90;18.70;;;-1.60;99.90;;;;;;5092823;28;20309;-67
2022/12/17 17:03:46;;;;;;;31.90;12.43;;;-1.40;99.90;;;;;;5107653;28;20765;-67
2022/12/17 17:06:12;;;;;;;31.57;18.87;;;-1.30;99.90;;;;;;5093770;28;20264;-68
2022/12/17 17:08:38;;;;;;;36.20;17.63;;;-1.40;99.90;;;;;;5090257;28;20662;-67
2022/12/17 17:11:14;;;;;;;30.33;15.97;;;-1.40;99.90;;;;;;5086017;28;20181;-67
2022/12/17 17:13:40;;;;;;;29.90;17.83;;;-1.40;99.90;;;;;;5087819;28;20182;-66
2022/12/17 17:16:08;;;;;;;31.77;16.80;;;-1.40;99.90;;;;;;5093724;28;20686;-67
2022/12/17 17:18:34;;;;;;;26.20;14.63;;;-1.40;99.90;;;;;;5088265;28;20570;-67
2022/12/17 17:21:15;;;;;;;29.50;17.37;;;-1.20;99.90;;;;;;5087681;28;20337;-66
2022/12/17 17:23:41;;;;;;;23.73;15.10;;;-1.30;99.90;;;;;;5076728;28;20226;-67
2022/12/17 17:26:08;;;;;;;27.57;18.23;;;-1.50;99.90;;;;;;5079337;28;20180;-67
2022/12/17 17:28:34;;;;;;;34.70;16.53;;;-1.40;99.90;;;;;;5092376;28;20305;-66
2022/12/17 17:31:01;;;;;;;31.87;16.73;;;-1.40;99.90;;;;;;5093280;28;20697;-67
2022/12/17 17:33:33;;;;;;;33.03;17.47;;;-1.20;99.90;;;;;;5106930;28;20324;-67
2022/12/17 17:36:06;;;;;;;35.93;16.90;;;-1.20;99.90;;;;;;5079634;28;20191;-68
2022/12/17 17:38:33;;;;;;;23.30;13.27;;;-1.30;99.90;;;;;;5079762;28;20706;-67
2022/12/17 17:40:59;;;;;;;34.60;17.47;;;-1.30;99.90;;;;;;5092230;28;20185;-68
2022/12/17 17:43:25;;;;;;;30.80;18.20;;;-1.50;99.90;;;;;;5090512;28;20522;-68
2022/12/17 17:45:52;;;;;;;18.53;14.30;;;-1.50;99.90;;;;;;5090928;28;20186;-68
2022/12/17 17:48:18;;;;;;;22.97;13.63;;;-1.40;99.90;;;;;;5081758;28;20188;-68
2022/12/17 17:50:43;;;;;;;21.70;15.37;;;-1.40;99.90;;;;;;5091376;28;20195;-65
2022/12/17 17:53:09;;;;;;;17.00;13.83;;;-1.40;99.90;;;;;;5091538;28;20179;-69
2022/12/17 17:55:35;;;;;;;18.00;12.53;;;-1.30;99.90;;;;;;5071004;28;20263;-70
2022/12/17 17:58:01;;;;;;;22.73;13.60;;;-1.60;99.90;;;;;;5089056;28;20183;-68
2022/12/17 18:00:27;;;;;;;20.10;11.93;;;-1.50;99.90;;;;;;5092433;28;20233;-68
2022/12/17 18:02:52;;;;;;;29.97;16.23;;;-1.50;99.90;;;;;;5091024;28;20190;-68
2022/12/17 18:05:18;;;;;;;20.77;14.63;;;-1.50;99.90;;;;;;5082889;28;20185;-71
2022/12/17 18:07:44;;;;;;;15.17;13.20;;;-1.40;99.90;;;;;;5081599;28;20184;-69
2022/12/17 18:10:09;;;;;;;37.13;17.03;;;-1.40;99.90;;;;;;5078212;28;20651;-68
2022/12/17 18:15:19;;;;;;;19.17;12.83;;;-1.40;99.90;;;;;;5091499;28;20601;-68
2022/12/17 18:17:49;;;;;;;30.90;20.13;;;-1.40;99.90;;;;;;5090377;28;20275;-69
2022/12/17 18:20:16;;;;;;;25.93;15.60;;;-1.40;99.90;;;;;;5092580;28;20529;-68
2022/12/17 18:22:42;;;;;;;28.37;15.23;;;-1.50;99.90;;;;;;5090218;28;20269;-69
2022/12/17 18:25:08;;;;;;;20.23;14.40;;;-1.60;99.90;;;;;;5074747;28;20192;-68
2022/12/17 18:27:33;;;;;;;17.80;13.03;;;-1.60;99.90;;;;;;5090567;28;20181;-70
2022/12/17 18:29:59;;;;;;;26.57;16.17;;;-1.70;99.90;;;;;;5092423;28;20215;-68
2022/12/17 18:32:25;;;;;;;25.73;15.47;;;-1.60;99.90;;;;;;5082801;28;20183;-68
2022/12/17 18:34:50;;;;;;;32.13;15.23;;;-1.60;99.90;;;;;;5092845;28;20246;-68
2022/12/17 18:37:16;;;;;;;34.50;17.50;;;-1.60;99.90;;;;;;5082770;28;20187;-68
2022/12/17 18:39:42;;;;;;;22.50;14.33;;;-1.40;99.90;;;;;;5090867;28;20622;-70
2022/12/17 18:44:52;;;;;;;21.57;13.07;;;-1.50;99.90;;;;;;5090625;28;20281;-67
2022/12/17 18:47:17;;;;;;;24.13;17.23;;;-1.60;99.90;;;;;;5091984;28;20264;-68
2022/12/17 18:49:43;;;;;;;18.83;13.33;;;-1.70;99.90;;;;;;5081283;28;20191;-69
2022/12/17 18:52:09;;;;;;;25.17;15.80;;;-1.70;99.90;;;;;;5080738;28;20271;-68
2022/12/17 18:54:35;;;;;;;29.10;16.40;;;-1.80;99.90;;;;;;5090898;28;20212;-67
2022/12/17 18:57:00;;;;;;;28.90;14.87;;;-1.70;99.90;;;;;;5090971;28;20194;-67
2022/12/17 18:59:28;;;;;;;29.63;12.80;;;-1.50;99.90;;;;;;5087175;28;20243;-67
2022/12/17 19:01:55;;;;;;;25.93;14.83;;;-1.60;99.90;;;;;;5077953;28;20181;-69
2022/12/17 19:04:22;;;;;;;21.80;14.53;;;-1.80;99.90;;;;;;5090537;28;20541;-68
2022/12/17 19:06:50;;;;;;;16.37;14.53;;;-1.80;99.90;;;;;;5091043;28;20215;-68
2022/12/17 19:09:21;;;;;;;26.67;14.33;;;-1.70;99.90;;;;;;5086071;28;20643;-69
2022/12/17 19:11:48;;;;;;;34.67;16.17;;;-1.60;99.90;;;;;;5081800;28;20275;-70
2022/12/17 19:14:16;;;;;;;15.63;13.77;;;-1.50;99.90;;;;;;5084950;28;20188;-68
2022/12/17 19:16:41;;;;;;;14.70;11.37;;;-1.70;99.90;;;;;;5091106;28;20194;-68
2022/12/17 19:19:11;;;;;;;18.13;11.00;;;-1.80;99.90;;;;;;5073652;28;20207;-69
2022/12/17 19:21:36;;;;;;;33.50;14.03;;;-1.90;99.90;;;;;;5090487;28;20646;-69
2022/12/17 19:24:04;;;;;;;30.57;15.83;;;-1.90;99.90;;;;;;5091619;28;20275;-68
2022/12/17 19:26:30;;;;;;;20.03;12.17;;;-2.10;99.90;;;;;;5084675;28;20186;-67
2022/12/17 19:28:58;;;;;;;16.90;11.80;;;-2.30;99.90;;;;;;5085428;28;20653;-68
2022/12/17 19:31:27;;;;;;;17.60;10.63;;;-2.40;99.90;;;;;;5102380;28;20188;-68
2022/12/17 19:33:55;;;;;;;20.00;14.37;;;-2.60;99.90;;;;;;5082037;28;20185;-68
2022/12/17 19:36:22;;;;;;;27.43;14.67;;;-2.70;99.90;;;;;;5091801;28;20542;-68
2022/12/17 19:38:51;;;;;;;36.00;16.00;;;-2.50;99.90;;;;;;5093153;28;20272;-69
2022/12/17 19:41:18;;;;;;;33.43;16.17;;;-2.30;99.90;;;;;;5089585;28;20644;-68
2022/12/17 19:43:47;;;;;;;15.40;13.00;;;-2.20;99.90;;;;;;5073060;28;20173;-68
2022/12/17 19:46:18;;;;;;;28.93;15.27;;;-2.30;99.90;;;;;;5095451;28;20178;-67
2022/12/17 19:48:45;;;;;;;21.77;14.70;;;-2.20;99.90;;;;;;5094175;28;20278;-68
2022/12/17 19:51:13;;;;;;;28.97;12.57;;;-2.00;99.90;;;;;;5095309;28;20189;-69
2022/12/17 19:53:42;;;;;;;24.03;12.50;;;-2.00;99.90;;;;;;5094532;28;20709;-68
2022/12/17 19:56:29;;;;;;;21.33;15.27;;;-2.00;99.90;;;;;;5094238;28;20536;-66
2022/12/17 19:58:57;;;;;;;14.33;11.67;;;-2.00;99.90;;;;;;5094092;28;20212;-67
2022/12/17 20:01:26;;;;;;;20.43;11.80;;;-2.20;99.90;;;;;;5093861;28;20209;-67
2022/12/17 20:03:53;;;;;;;17.63;10.77;;;-2.40;99.90;;;;;;5094947;28;20712;-68
2022/12/17 20:06:21;;;;;;;28.27;11.83;;;-2.40;99.90;;;;;;5086910;28;20185;-67
2022/12/17 20:08:46;;;;;;;23.57;13.00;;;-2.40;99.90;;;;;;5092553;28;20186;-68
2022/12/17 20:11:32;;;;;;;13.40;9.13;;;-2.30;99.90;;;;;;5094570;28;20269;-67
2022/12/17 20:14:20;;;;;;;21.17;11.20;;;-2.40;99.90;;;;;;5094620;28;20226;-67
2022/12/17 20:16:51;;;;;;;12.13;10.60;;;-2.40;99.90;;;;;;5091341;28;20252;-67
2022/12/17 20:19:20;;;;;;;13.67;12.40;;;-2.40;99.90;;;;;;5094372;28;20207;-67
2022/12/17 20:21:46;;;;;;;15.87;10.53;;;-2.30;99.90;;;;;;5088707;28;20203;-68
2022/12/17 20:24:13;;;;;;;24.33;14.20;;;-2.40;99.90;;;;;;5092684;28;20213;-68
2022/12/17 20:26:39;;;;;;;17.37;11.30;;;-2.40;99.90;;;;;;5094899;28;20658;-67
2022/12/17 20:29:06;;;;;;;29.73;13.83;;;-2.40;99.90;;;;;;5091606;28;20219;-67
2022/12/17 20:31:32;;;;;;;23.10;13.77;;;-2.40;99.90;;;;;;5088032;28;20546;-67
2022/12/17 20:34:02;;;;;;;16.13;10.83;;;-2.30;99.90;;;;;;5094323;28;20185;-67
2022/12/17 20:36:28;;;;;;;21.83;13.93;;;-2.30;99.90;;;;;;5073622;28;20199;-68
2022/12/17 20:38:54;;;;;;;14.77;11.90;;;-2.20;99.90;;;;;;5093581;28;20213;-68
2022/12/17 20:41:22;;;;;;;21.83;12.57;;;-2.30;99.90;;;;;;5093085;28;20214;-69
2022/12/17 20:43:48;;;;;;;20.50;13.03;;;-2.30;99.90;;;;;;5076146;28;20241;-68
2022/12/17 20:46:15;;;;;;;17.80;12.40;;;-2.20;99.90;;;;;;5083547;28;20257;-68
2022/12/17 20:48:42;;;;;;;18.37;12.43;;;-2.10;99.90;;;;;;5077119;28;20183;-67
2022/12/17 20:51:10;;;;;;;20.77;12.47;;;-2.20;99.90;;;;;;5082561;28;20350;-67
2022/12/17 20:53:37;;;;;;;23.40;18.97;;;-2.30;99.90;;;;;;5078690;28;20176;-67
2022/12/17 20:56:05;;;;;;;23.53;15.03;;;-2.20;99.90;;;;;;5089982;28;20213;-68
2022/12/17 20:58:31;;;;;;;15.97;12.33;;;-2.20;99.90;;;;;;5089555;28;20585;-68
2022/12/17 21:01:06;;;;;;;15.40;11.50;;;-2.40;99.90;;;;;;5094898;28;20190;-68
2022/12/17 21:03:32;;;;;;;20.43;9.77;;;-2.50;99.90;;;;;;5094230;28;20188;-68
2022/12/17 21:06:13;;;;;;;24.23;12.23;;;-2.50;99.90;;;;;;5083519;28;20185;-68
2022/12/17 21:08:40;;;;;;;32.80;15.93;;;-2.50;99.90;;;;;;5092997;28;20176;-67
2022/12/17 21:11:06;;;;;;;26.60;16.40;;;-2.50;99.90;;;;;;5094554;28;20180;-68
2022/12/17 21:13:32;;;;;;;23.77;15.03;;;-2.60;99.90;;;;;;5093113;28;20182;-67
2022/12/17 21:16:00;;;;;;;17.83;11.90;;;-2.60;99.90;;;;;;5092581;28;20193;-67
2022/12/17 21:18:28;;;;;;;20.07;10.53;;;-2.60;99.90;;;;;;5092459;28;20220;-67
2022/12/17 21:21:06;;;;;;;19.60;11.90;;;-2.70;99.90;;;;;;5070989;28;20672;-67
2022/12/17 21:23:32;;;;;;;13.13;8.43;;;-2.70;99.90;;;;;;5088376;28;20196;-70
2022/12/17 21:26:07;;;;;;;14.13;12.23;;;-2.70;99.90;;;;;;5074964;28;20664;-67
2022/12/17 21:28:35;;;;;;;12.30;10.57;;;-2.80;99.90;;;;;;5072620;28;20194;-68
2022/12/17 21:31:02;;;;;;;18.07;16.17;;;-2.70;99.90;;;;;;5093950;28;20188;-68
2022/12/17 21:33:28;;;;;;;23.07;12.60;;;-2.80;99.90;;;;;;5091959;28;20204;-68
2022/12/17 21:36:02;;;;;;;16.43;10.93;;;-2.80;99.90;;;;;;5072760;28;20188;-68
2022/12/17 21:38:29;;;;;;;16.67;8.77;;;-2.70;99.90;;;;;;5093150;28;20229;-68
2022/12/17 21:40:55;;;;;;;16.77;12.80;;;-2.60;99.90;;;;;;5075041;28;20373;-68
2022/12/17 21:43:22;;;;;;;12.67;11.37;;;-2.60;99.90;;;;;;5093371;28;20280;-68
2022/12/17 21:45:48;;;;;;;11.77;10.23;;;-2.60;99.90;;;;;;5074068;28;20331;-67
2022/12/17 21:48:14;;;;;;;13.50;11.77;;;-2.50;99.90;;;;;;5092557;28;20271;-67
2022/12/17 21:50:42;;;;;;;18.23;13.53;;;-2.50;99.90;;;;;;5090945;28;20258;-66
2022/12/17 21:53:09;;;;;;;27.43;13.00;;;-2.60;99.90;;;;;;5085608;28;20182;-68
2022/12/17 21:55:35;;;;;;;18.47;12.97;;;-2.60;99.90;;;;;;5092019;28;20185;-67
2022/12/17 21:58:01;;;;;;;20.07;14.00;;;-2.70;99.90;;;;;;5081783;28;20184;-67
2022/12/17 22:00:27;;;;;;;20.90;11.43;;;-2.50;99.90;;;;;;5072133;28;20211;-68
2022/12/17 22:02:52;;;;;;;14.50;10.20;;;-2.60;99.90;;;;;;5088161;28;20640;-66
2022/12/17 22:05:18;;;;;;;26.60;12.83;;;-2.70;99.90;;;;;;5056655;28;20237;-70
2022/12/17 22:07:45;;;;;;;28.10;10.77;;;-2.90;99.90;;;;;;5090826;28;20178;-67
2022/12/17 22:10:11;;;;;;;16.50;12.40;;;-2.90;99.90;;;;;;5089156;28;20187;-67
2022/12/17 22:15:21;;;;;;;17.40;9.97;;;-2.70;99.90;;;;;;5087337;28;20236;-68
2022/12/17 22:17:47;;;;;;;19.90;12.93;;;-2.70;99.90;;;;;;5092113;28;20187;-67
2022/12/17 22:20:15;;;;;;;20.73;11.63;;;-2.80;99.90;;;;;;5091247;28;20206;-67
2022/12/17 22:22:41;;;;;;;14.97;11.20;;;-2.80;99.90;;;;;;5086821;28;20209;-68
2022/12/17 22:25:08;;;;;;;14.13;10.30;;;-2.90;99.90;;;;;;5091288;28;20706;-66
2022/12/17 22:27:33;;;;;;;15.07;9.43;;;-3.00;99.90;;;;;;5090432;28;20224;-67
2022/12/17 22:32:58;;;;;;;22.13;13.23;;;-3.10;99.90;;;;;;5086442;28;20252;-68
2022/12/17 22:35:24;;;;;;;14.87;13.03;;;-3.00;99.90;;;;;;5076926;28;20178;-67
2022/12/17 22:37:51;;;;;;;20.87;16.10;;;-3.00;99.90;;;;;;5073269;28;20278;-68
2022/12/17 22:40:17;;;;;;;19.40;13.23;;;-3.00;99.90;;;;;;5088438;28;20206;-66
2022/12/17 22:45:27;;;;;;;9.67;9.03;;;-3.20;99.90;;;;;;5091588;28;20276;-67
2022/12/17 22:47:53;;;;;;;19.27;12.33;;;-2.90;99.90;;;;;;5081178;28;20210;-69
2022/12/17 22:50:18;;;;;;;13.33;10.13;;;-2.80;99.90;;;;;;5073067;28;20217;-67
2022/12/17 22:52:44;;;;;;;13.87;11.80;;;-2.80;99.90;;;;;;5090977;28;20210;-67
2022/12/17 22:55:11;;;;;;;9.37;8.50;;;-2.80;99.90;;;;;;5090981;28;20189;-67
2022/12/17 22:57:37;;;;;;;16.03;11.57;;;-3.00;99.90;;;;;;5090217;28;20276;-67
2022/12/17 23:00:08;;;;;;;23.60;13.80;;;-3.20;99.90;;;;;;5092431;28;20296;-68
2022/12/17 23:02:34;;;;;;;24.10;11.77;;;-3.30;99.90;;;;;;5088420;28;20602;-68
2022/12/17 23:04:59;;;;;;;18.73;10.90;;;-3.30;99.90;;;;;;5083040;28;20270;-68
2022/12/17 23:07:25;;;;;;;15.93;10.93;;;-3.30;99.90;;;;;;5085891;28;20270;-68
2022/12/17 23:09:51;;;;;;;11.80;10.07;;;-3.50;99.90;;;;;;5100521;28;20322;-69
2022/12/17 23:15:01;;;;;;;13.93;10.00;;;-3.70;99.90;;;;;;5080992;28;20196;-69
2022/12/17 23:17:26;;;;;;;18.20;10.63;;;-3.60;99.90;;;;;;5097753;28;20188;-68
2022/12/17 23:19:52;;;;;;;16.03;9.13;;;-3.30;99.90;;;;;;5077627;28;20200;-68
2022/12/17 23:22:18;;;;;;;13.53;10.97;;;-3.20;99.90;;;;;;5092143;28;20546;-66
2022/12/17 23:24:44;;;;;;;12.43;9.53;;;-3.20;99.90;;;;;;5094573;28;20547;-68
2022/12/17 23:27:09;;;;;;;15.60;11.07;;;-3.40;99.90;;;;;;5077457;28;20180;-67
2022/12/17 23:29:35;;;;;;;14.30;11.77;;;-3.60;99.90;;;;;;5095719;28;20650;-67
2022/12/17 23:32:01;;;;;;;10.97;10.00;;;-3.70;99.90;;;;;;5081634;28;20193;-67
2022/12/17 23:34:28;;;;;;;11.70;10.57;;;-3.80;99.90;;;;;;5083558;28;20193;-64
2022/12/17 23:36:54;;;;;;;11.40;8.57;;;-4.00;99.90;;;;;;5091041;28;20231;-65
2022/12/17 23:39:19;;;;;;;9.23;8.30;;;-4.10;99.90;;;;;;5090920;28;20864;-64
2022/12/17 23:41:45;;;;;;;11.10;9.17;;;-4.20;99.90;;;;;;5076594;28;20580;-66
2022/12/17 23:44:11;;;;;;;10.10;8.33;;;-4.10;99.90;;;;;;5092365;28;20672;-67
2022/12/17 23:46:36;;;;;;;15.83;12.33;;;-3.90;99.90;;;;;;5090233;28;20185;-67
2022/12/17 23:49:05;;;;;;;15.77;8.87;;;-3.80;99.90;;;;;;5076916;28;20196;-68
2022/12/17 23:51:31;;;;;;;15.93;9.33;;;-3.80;99.90;;;;;;5083488;28;20197;-68
2022/12/17 23:54:00;;;;;;;20.37;9.37;;;-3.60;99.90;;;;;;5094398;28;20195;-67
2022/12/17 23:56:27;;;;;;;11.33;8.80;;;-3.70;99.90;;;;;;5095449;28;20181;-67
2022/12/17 23:58:55;;;;;;;17.97;9.17;;;-3.80;99.90;;;;;;5094971;28;20190;-66
